sensor_id;sensor_type;location;lat;lon;timestamp;P1;durP1;ratioP1;P2;durP2;ratioP2
71730;SDS011;65964;43.496;3.710;2024-01-15T00:00:25;5.78;;;3.00;;
71730;SDS011;65964;43.496;3.710;2024-01-15T00:02:51;5.80;;;3.00;;
71730;SDS011;65964;43.496;3.710;2024-01-15T00:05:17;7.75;;;2.90;;
71730;SDS011;65964;43.496;3.710;2024-01-15T00:07:43;6.25;;;3.03;;
71730;SDS011;65964;43.496;3.710;2024-01-15T00:10:09;6.82;;;2.72;;
71730;SDS011;65964;43.496;3.710;2024-01-15T00:12:35;5.90;;;2.63;;
71730;SDS011;65964;43.496;3.710;2024-01-15T00:15:01;5.90;;;3.05;;
71730;SDS011;65964;43.496;3.710;2024-01-15T00:17:27;6.10;;;2.72;;
71730;SDS011;65964;43.496;3.710;2024-01-15T00:19:53;6.20;;;3.13;;
71730;SDS011;65964;43.496;3.710;2024-01-15T00:22:19;6.10;;;3.00;;
71730;SDS011;65964;43.496;3.710;2024-01-15T00:24:45;5.40;;;3.33;;
71730;SDS011;65964;43.496;3.710;2024-01-15T00:27:11;7.30;;;3.20;;
71730;SDS011;65964;43.496;3.710;2024-01-15T00:29:37;6.00;;;2.90;;
71730;SDS011;65964;43.496;3.710;2024-01-15T00:32:03;7.05;;;3.20;;
71730;SDS011;65964;43.496;3.710;2024-01-15T00:34:29;5.95;;;2.97;;
71730;SDS011;65964;43.496;3.710;2024-01-15T00:36:55;6.57;;;2.72;;
71730;SDS011;65964;43.496;3.710;2024-01-15T00:39:21;6.68;;;3.10;;
71730;SDS011;65964;43.496;3.710;2024-01-15T00:41:47;7.30;;;2.88;;
71730;SDS011;65964;43.496;3.710;2024-01-15T00:44:13;5.82;;;2.90;;
71730;SDS011;65964;43.496;3.710;2024-01-15T00:46:45;12.55;;;4.30;;
71730;SDS011;65964;43.496;3.710;2024-01-15T00:49:14;8.65;;;4.25;;
71730;SDS011;65964;43.496;3.710;2024-01-15T00:51:40;6.20;;;3.17;;
71730;SDS011;65964;43.496;3.710;2024-01-15T00:54:06;7.97;;;3.72;;
71730;SDS011;65964;43.496;3.710;2024-01-15T00:56:33;6.53;;;3.65;;
71730;SDS011;65964;43.496;3.710;2024-01-15T00:58:59;7.85;;;4.00;;
71730;SDS011;65964;43.496;3.710;2024-01-15T01:01:25;9.60;;;5.90;;
71730;SDS011;65964;43.496;3.710;2024-01-15T01:03:51;18.17;;;7.85;;
71730;SDS011;65964;43.496;3.710;2024-01-15T01:06:17;12.77;;;6.55;;
71730;SDS011;65964;43.496;3.710;2024-01-15T01:08:43;10.75;;;5.55;;
71730;SDS011;65964;43.496;3.710;2024-01-15T01:11:12;11.85;;;5.82;;
71730;SDS011;65964;43.496;3.710;2024-01-15T01:13:38;7.00;;;3.88;;
71730;SDS011;65964;43.496;3.710;2024-01-15T01:16:04;7.07;;;3.80;;
71730;SDS011;65964;43.496;3.710;2024-01-15T01:18:30;6.97;;;3.53;;
71730;SDS011;65964;43.496;3.710;2024-01-15T01:20:56;5.75;;;2.85;;
71730;SDS011;65964;43.496;3.710;2024-01-15T01:23:22;6.00;;;2.92;;
71730;SDS011;65964;43.496;3.710;2024-01-15T01:25:48;5.50;;;3.10;;
71730;SDS011;65964;43.496;3.710;2024-01-15T01:28:14;6.88;;;2.90;;
71730;SDS011;65964;43.496;3.710;2024-01-15T01:30:41;5.75;;;2.70;;
71730;SDS011;65964;43.496;3.710;2024-01-15T01:33:07;5.50;;;2.97;;
71730;SDS011;65964;43.496;3.710;2024-01-15T01:35:32;6.03;;;2.80;;
71730;SDS011;65964;43.496;3.710;2024-01-15T01:37:59;8.02;;;2.97;;
71730;SDS011;65964;43.496;3.710;2024-01-15T01:40:24;5.63;;;3.17;;
71730;SDS011;65964;43.496;3.710;2024-01-15T01:42:50;6.25;;;3.20;;
71730;SDS011;65964;43.496;3.710;2024-01-15T01:45:16;5.63;;;2.95;;
71730;SDS011;65964;43.496;3.710;2024-01-15T01:47:42;5.88;;;3.10;;
71730;SDS011;65964;43.496;3.710;2024-01-15T01:50:09;6.60;;;3.05;;
71730;SDS011;65964;43.496;3.710;2024-01-15T01:52:35;6.75;;;3.03;;
71730;SDS011;65964;43.496;3.710;2024-01-15T01:55:01;6.32;;;3.60;;
71730;SDS011;65964;43.496;3.710;2024-01-15T01:57:28;7.53;;;3.55;;
71730;SDS011;65964;43.496;3.710;2024-01-15T01:59:55;6.03;;;3.33;;
71730;SDS011;65964;43.496;3.710;2024-01-15T02:02:21;6.95;;;3.38;;
71730;SDS011;65964;43.496;3.710;2024-01-15T02:04:47;7.72;;;3.35;;
71730;SDS011;65964;43.496;3.710;2024-01-15T02:07:13;6.70;;;3.70;;
71730;SDS011;65964;43.496;3.710;2024-01-15T02:09:42;6.20;;;3.38;;
71730;SDS011;65964;43.496;3.710;2024-01-15T02:12:08;5.32;;;3.20;;
71730;SDS011;65964;43.496;3.710;2024-01-15T02:14:34;7.65;;;3.53;;
71730;SDS011;65964;43.496;3.710;2024-01-15T02:17:00;12.13;;;4.53;;
71730;SDS011;65964;43.496;3.710;2024-01-15T02:19:26;6.97;;;3.67;;
71730;SDS011;65964;43.496;3.710;2024-01-15T02:21:52;7.60;;;3.95;;
71730;SDS011;65964;43.496;3.710;2024-01-15T02:24:18;7.70;;;3.70;;
71730;SDS011;65964;43.496;3.710;2024-01-15T02:26:44;5.60;;;3.47;;
71730;SDS011;65964;43.496;3.710;2024-01-15T02:29:11;6.88;;;3.72;;
71730;SDS011;65964;43.496;3.710;2024-01-15T02:31:37;7.35;;;3.80;;
71730;SDS011;65964;43.496;3.710;2024-01-15T02:34:03;7.07;;;4.10;;
71730;SDS011;65964;43.496;3.710;2024-01-15T02:36:29;7.40;;;4.45;;
71730;SDS011;65964;43.496;3.710;2024-01-15T02:38:55;7.45;;;4.25;;
71730;SDS011;65964;43.496;3.710;2024-01-15T02:41:21;8.23;;;4.25;;
71730;SDS011;65964;43.496;3.710;2024-01-15T02:43:48;8.55;;;4.35;;
71730;SDS011;65964;43.496;3.710;2024-01-15T02:46:14;9.38;;;4.22;;
71730;SDS011;65964;43.496;3.710;2024-01-15T02:48:41;7.32;;;4.47;;
71730;SDS011;65964;43.496;3.710;2024-01-15T02:51:07;7.22;;;4.10;;
71730;SDS011;65964;43.496;3.710;2024-01-15T02:53:33;6.88;;;4.32;;
71730;SDS011;65964;43.496;3.710;2024-01-15T02:55:59;9.07;;;4.97;;
71730;SDS011;65964;43.496;3.710;2024-01-15T02:58:25;7.93;;;4.60;;
71730;SDS011;65964;43.496;3.710;2024-01-15T03:00:51;7.65;;;4.45;;
71730;SDS011;65964;43.496;3.710;2024-01-15T03:03:17;9.15;;;4.70;;
71730;SDS011;65964;43.496;3.710;2024-01-15T03:05:43;8.80;;;4.40;;
71730;SDS011;65964;43.496;3.710;2024-01-15T03:08:09;8.35;;;4.53;;
71730;SDS011;65964;43.496;3.710;2024-01-15T03:10:35;9.40;;;5.22;;
71730;SDS011;65964;43.496;3.710;2024-01-15T03:13:01;8.98;;;4.80;;
71730;SDS011;65964;43.496;3.710;2024-01-15T03:15:27;9.05;;;5.10;;
71730;SDS011;65964;43.496;3.710;2024-01-15T03:17:53;30.30;;;8.45;;
71730;SDS011;65964;43.496;3.710;2024-01-15T03:20:19;16.10;;;7.65;;
71730;SDS011;65964;43.496;3.710;2024-01-15T03:22:45;14.32;;;7.57;;
71730;SDS011;65964;43.496;3.710;2024-01-15T03:25:11;16.25;;;9.07;;
71730;SDS011;65964;43.496;3.710;2024-01-15T03:27:37;11.45;;;6.90;;
71730;SDS011;65964;43.496;3.710;2024-01-15T03:30:03;10.05;;;5.78;;
71730;SDS011;65964;43.496;3.710;2024-01-15T03:32:29;10.18;;;5.95;;
71730;SDS011;65964;43.496;3.710;2024-01-15T03:34:55;7.75;;;4.55;;
71730;SDS011;65964;43.496;3.710;2024-01-15T03:37:21;7.20;;;4.50;;
71730;SDS011;65964;43.496;3.710;2024-01-15T03:39:47;8.68;;;4.50;;
71730;SDS011;65964;43.496;3.710;2024-01-15T03:42:13;9.60;;;4.47;;
71730;SDS011;65964;43.496;3.710;2024-01-15T03:44:39;11.93;;;4.90;;
71730;SDS011;65964;43.496;3.710;2024-01-15T03:47:05;9.65;;;4.60;;
71730;SDS011;65964;43.496;3.710;2024-01-15T03:49:31;7.53;;;4.25;;
71730;SDS011;65964;43.496;3.710;2024-01-15T03:51:57;8.00;;;4.20;;
71730;SDS011;65964;43.496;3.710;2024-01-15T03:54:23;14.10;;;4.50;;
71730;SDS011;65964;43.496;3.710;2024-01-15T03:56:49;8.35;;;4.35;;
71730;SDS011;65964;43.496;3.710;2024-01-15T03:59:15;8.05;;;4.32;;
71730;SDS011;65964;43.496;3.710;2024-01-15T04:01:45;8.30;;;4.60;;
71730;SDS011;65964;43.496;3.710;2024-01-15T04:04:13;9.18;;;4.70;;
71730;SDS011;65964;43.496;3.710;2024-01-15T04:06:39;8.15;;;4.38;;
71730;SDS011;65964;43.496;3.710;2024-01-15T04:09:05;9.30;;;4.28;;
71730;SDS011;65964;43.496;3.710;2024-01-15T04:11:31;8.77;;;4.28;;
71730;SDS011;65964;43.496;3.710;2024-01-15T04:13:57;7.18;;;4.10;;
71730;SDS011;65964;43.496;3.710;2024-01-15T04:16:23;10.70;;;4.45;;
71730;SDS011;65964;43.496;3.710;2024-01-15T04:18:49;6.82;;;3.85;;
71730;SDS011;65964;43.496;3.710;2024-01-15T04:21:16;7.35;;;4.20;;
71730;SDS011;65964;43.496;3.710;2024-01-15T04:23:43;7.53;;;3.95;;
71730;SDS011;65964;43.496;3.710;2024-01-15T04:26:09;7.88;;;4.35;;
71730;SDS011;65964;43.496;3.710;2024-01-15T04:28:35;9.23;;;4.70;;
71730;SDS011;65964;43.496;3.710;2024-01-15T04:31:01;8.20;;;4.03;;
71730;SDS011;65964;43.496;3.710;2024-01-15T04:33:27;6.88;;;4.07;;
71730;SDS011;65964;43.496;3.710;2024-01-15T04:35:53;7.05;;;3.83;;
71730;SDS011;65964;43.496;3.710;2024-01-15T04:38:19;6.95;;;4.20;;
71730;SDS011;65964;43.496;3.710;2024-01-15T04:40:45;8.10;;;4.20;;
71730;SDS011;65964;43.496;3.710;2024-01-15T04:43:11;8.63;;;4.20;;
71730;SDS011;65964;43.496;3.710;2024-01-15T04:45:37;7.43;;;4.18;;
71730;SDS011;65964;43.496;3.710;2024-01-15T04:48:03;7.38;;;4.65;;
71730;SDS011;65964;43.496;3.710;2024-01-15T04:50:29;7.78;;;4.10;;
71730;SDS011;65964;43.496;3.710;2024-01-15T04:52:55;9.60;;;4.40;;
71730;SDS011;65964;43.496;3.710;2024-01-15T04:55:21;10.00;;;4.53;;
71730;SDS011;65964;43.496;3.710;2024-01-15T04:57:47;8.10;;;4.20;;
71730;SDS011;65964;43.496;3.710;2024-01-15T05:00:13;10.85;;;4.32;;
71730;SDS011;65964;43.496;3.710;2024-01-15T05:02:39;8.43;;;4.15;;
71730;SDS011;65964;43.496;3.710;2024-01-15T05:05:05;8.27;;;4.22;;
71730;SDS011;65964;43.496;3.710;2024-01-15T05:07:31;7.10;;;4.00;;
71730;SDS011;65964;43.496;3.710;2024-01-15T05:09:57;7.72;;;4.38;;
71730;SDS011;65964;43.496;3.710;2024-01-15T05:12:23;13.07;;;7.05;;
71730;SDS011;65964;43.496;3.710;2024-01-15T05:14:49;12.38;;;5.55;;
71730;SDS011;65964;43.496;3.710;2024-01-15T05:17:15;10.95;;;4.55;;
71730;SDS011;65964;43.496;3.710;2024-01-15T05:19:41;11.60;;;6.00;;
71730;SDS011;65964;43.496;3.710;2024-01-15T05:22:07;22.08;;;7.32;;
71730;SDS011;65964;43.496;3.710;2024-01-15T05:24:33;23.27;;;7.97;;
71730;SDS011;65964;43.496;3.710;2024-01-15T05:26:59;22.45;;;8.60;;
71730;SDS011;65964;43.496;3.710;2024-01-15T05:29:25;17.08;;;7.35;;
71730;SDS011;65964;43.496;3.710;2024-01-15T05:31:52;16.13;;;6.80;;
71730;SDS011;65964;43.496;3.710;2024-01-15T05:34:18;24.30;;;8.20;;
71730;SDS011;65964;43.496;3.710;2024-01-15T05:36:44;24.52;;;8.00;;
71730;SDS011;65964;43.496;3.710;2024-01-15T05:39:12;13.50;;;6.97;;
71730;SDS011;65964;43.496;3.710;2024-01-15T05:41:38;15.63;;;6.50;;
71730;SDS011;65964;43.496;3.710;2024-01-15T05:44:04;14.00;;;6.50;;
71730;SDS011;65964;43.496;3.710;2024-01-15T05:46:30;10.50;;;5.10;;
71730;SDS011;65964;43.496;3.710;2024-01-15T05:48:56;16.45;;;6.30;;
71730;SDS011;65964;43.496;3.710;2024-01-15T05:51:22;19.98;;;7.22;;
71730;SDS011;65964;43.496;3.710;2024-01-15T05:53:48;11.88;;;5.18;;
71730;SDS011;65964;43.496;3.710;2024-01-15T05:56:14;15.35;;;5.47;;
71730;SDS011;65964;43.496;3.710;2024-01-15T05:58:41;28.25;;;8.63;;
71730;SDS011;65964;43.496;3.710;2024-01-15T06:01:07;30.52;;;9.00;;
71730;SDS011;65964;43.496;3.710;2024-01-15T06:03:32;21.13;;;7.13;;
71730;SDS011;65964;43.496;3.710;2024-01-15T06:05:58;24.35;;;7.72;;
71730;SDS011;65964;43.496;3.710;2024-01-15T06:08:24;21.55;;;7.30;;
71730;SDS011;65964;43.496;3.710;2024-01-15T06:10:52;18.90;;;7.05;;
71730;SDS011;65964;43.496;3.710;2024-01-15T06:13:19;16.75;;;7.57;;
71730;SDS011;65964;43.496;3.710;2024-01-15T06:15:45;19.55;;;7.03;;
71730;SDS011;65964;43.496;3.710;2024-01-15T06:18:11;17.80;;;6.22;;
71730;SDS011;65964;43.496;3.710;2024-01-15T06:20:37;16.38;;;6.43;;
71730;SDS011;65964;43.496;3.710;2024-01-15T06:23:03;12.23;;;6.43;;
71730;SDS011;65964;43.496;3.710;2024-01-15T06:25:29;17.33;;;6.72;;
71730;SDS011;65964;43.496;3.710;2024-01-15T06:27:55;16.85;;;7.03;;
71730;SDS011;65964;43.496;3.710;2024-01-15T06:30:21;29.42;;;10.95;;
71730;SDS011;65964;43.496;3.710;2024-01-15T06:32:48;24.75;;;7.18;;
71730;SDS011;65964;43.496;3.710;2024-01-15T06:35:15;23.95;;;7.65;;
71730;SDS011;65964;43.496;3.710;2024-01-15T06:37:41;13.95;;;5.80;;
71730;SDS011;65964;43.496;3.710;2024-01-15T06:40:07;20.10;;;6.25;;
71730;SDS011;65964;43.496;3.710;2024-01-15T06:42:34;13.18;;;6.05;;
71730;SDS011;65964;43.496;3.710;2024-01-15T06:45:00;14.45;;;5.85;;
71730;SDS011;65964;43.496;3.710;2024-01-15T06:47:26;21.27;;;7.10;;
71730;SDS011;65964;43.496;3.710;2024-01-15T06:49:52;15.05;;;6.60;;
71730;SDS011;65964;43.496;3.710;2024-01-15T06:52:18;18.05;;;7.75;;
71730;SDS011;65964;43.496;3.710;2024-01-15T06:54:44;17.85;;;7.70;;
71730;SDS011;65964;43.496;3.710;2024-01-15T06:57:10;16.50;;;6.22;;
71730;SDS011;65964;43.496;3.710;2024-01-15T06:59:36;23.67;;;7.40;;
71730;SDS011;65964;43.496;3.710;2024-01-15T07:02:02;25.95;;;8.00;;
71730;SDS011;65964;43.496;3.710;2024-01-15T07:04:28;21.23;;;6.95;;
71730;SDS011;65964;43.496;3.710;2024-01-15T07:06:54;22.73;;;8.30;;
71730;SDS011;65964;43.496;3.710;2024-01-15T07:09:20;14.48;;;6.38;;
71730;SDS011;65964;43.496;3.710;2024-01-15T07:11:46;13.95;;;6.22;;
71730;SDS011;65964;43.496;3.710;2024-01-15T07:14:12;12.88;;;5.82;;
71730;SDS011;65964;43.496;3.710;2024-01-15T07:16:39;11.70;;;6.05;;
71730;SDS011;65964;43.496;3.710;2024-01-15T07:19:05;17.05;;;6.13;;
71730;SDS011;65964;43.496;3.710;2024-01-15T07:21:32;13.13;;;5.35;;
71730;SDS011;65964;43.496;3.710;2024-01-15T07:23:58;33.47;;;8.70;;
71730;SDS011;65964;43.496;3.710;2024-01-15T07:26:24;15.00;;;5.80;;
71730;SDS011;65964;43.496;3.710;2024-01-15T07:28:51;15.15;;;5.80;;
71730;SDS011;65964;43.496;3.710;2024-01-15T07:31:17;22.20;;;5.68;;
71730;SDS011;65964;43.496;3.710;2024-01-15T07:33:43;19.30;;;5.25;;
71730;SDS011;65964;43.496;3.710;2024-01-15T07:36:09;22.80;;;6.53;;
71730;SDS011;65964;43.496;3.710;2024-01-15T07:38:35;26.25;;;8.65;;
71730;SDS011;65964;43.496;3.710;2024-01-15T07:41:02;15.30;;;6.63;;
71730;SDS011;65964;43.496;3.710;2024-01-15T07:43:28;14.98;;;5.30;;
71730;SDS011;65964;43.496;3.710;2024-01-15T07:45:54;19.67;;;7.95;;
71730;SDS011;65964;43.496;3.710;2024-01-15T07:48:20;31.23;;;9.50;;
71730;SDS011;65964;43.496;3.710;2024-01-15T07:50:46;20.02;;;7.82;;
71730;SDS011;65964;43.496;3.710;2024-01-15T07:53:12;14.13;;;5.85;;
71730;SDS011;65964;43.496;3.710;2024-01-15T07:55:38;15.18;;;7.30;;
71730;SDS011;65964;43.496;3.710;2024-01-15T07:58:05;16.73;;;6.80;;
71730;SDS011;65964;43.496;3.710;2024-01-15T08:00:30;11.55;;;4.45;;
71730;SDS011;65964;43.496;3.710;2024-01-15T08:02:57;16.58;;;5.43;;
71730;SDS011;65964;43.496;3.710;2024-01-15T08:05:23;13.85;;;4.85;;
71730;SDS011;65964;43.496;3.710;2024-01-15T08:07:49;11.73;;;3.97;;
71730;SDS011;65964;43.496;3.710;2024-01-15T08:10:15;17.13;;;6.10;;
71730;SDS011;65964;43.496;3.710;2024-01-15T08:12:41;12.55;;;3.75;;
71730;SDS011;65964;43.496;3.710;2024-01-15T08:15:07;18.10;;;5.43;;
71730;SDS011;65964;43.496;3.710;2024-01-15T08:17:33;20.95;;;7.45;;
71730;SDS011;65964;43.496;3.710;2024-01-15T08:19:59;18.33;;;4.35;;
71730;SDS011;65964;43.496;3.710;2024-01-15T08:22:26;13.63;;;4.20;;
71730;SDS011;65964;43.496;3.710;2024-01-15T08:24:52;9.80;;;3.80;;
71730;SDS011;65964;43.496;3.710;2024-01-15T08:27:20;8.55;;;3.28;;
71730;SDS011;65964;43.496;3.710;2024-01-15T08:29:46;12.95;;;3.90;;
71730;SDS011;65964;43.496;3.710;2024-01-15T08:32:12;32.40;;;6.57;;
71730;SDS011;65964;43.496;3.710;2024-01-15T08:34:40;29.73;;;7.22;;
71730;SDS011;65964;43.496;3.710;2024-01-15T08:37:07;17.27;;;5.43;;
71730;SDS011;65964;43.496;3.710;2024-01-15T08:39:33;29.05;;;7.60;;
71730;SDS011;65964;43.496;3.710;2024-01-15T08:41:59;22.08;;;7.07;;
71730;SDS011;65964;43.496;3.710;2024-01-15T08:44:25;23.67;;;6.38;;
71730;SDS011;65964;43.496;3.710;2024-01-15T08:46:51;18.15;;;6.82;;
71730;SDS011;65964;43.496;3.710;2024-01-15T08:49:17;19.23;;;5.50;;
71730;SDS011;65964;43.496;3.710;2024-01-15T08:51:43;10.80;;;3.78;;
71730;SDS011;65964;43.496;3.710;2024-01-15T08:54:09;13.32;;;4.20;;
71730;SDS011;65964;43.496;3.710;2024-01-15T08:56:35;21.63;;;6.13;;
71730;SDS011;65964;43.496;3.710;2024-01-15T08:59:01;22.48;;;5.95;;
71730;SDS011;65964;43.496;3.710;2024-01-15T09:01:27;15.50;;;5.47;;
71730;SDS011;65964;43.496;3.710;2024-01-15T09:03:54;15.48;;;4.18;;
71730;SDS011;65964;43.496;3.710;2024-01-15T09:06:20;12.68;;;4.70;;
71730;SDS011;65964;43.496;3.710;2024-01-15T09:08:46;11.40;;;3.95;;
71730;SDS011;65964;43.496;3.710;2024-01-15T09:11:12;15.07;;;4.18;;
71730;SDS011;65964;43.496;3.710;2024-01-15T09:13:38;10.85;;;4.95;;
71730;SDS011;65964;43.496;3.710;2024-01-15T09:16:04;25.85;;;5.25;;
71730;SDS011;65964;43.496;3.710;2024-01-15T09:18:30;12.25;;;4.13;;
71730;SDS011;65964;43.496;3.710;2024-01-15T09:20:57;18.77;;;5.80;;
71730;SDS011;65964;43.496;3.710;2024-01-15T09:23:23;16.70;;;5.63;;
71730;SDS011;65964;43.496;3.710;2024-01-15T09:25:49;12.60;;;4.35;;
71730;SDS011;65964;43.496;3.710;2024-01-15T09:28:15;24.13;;;5.95;;
71730;SDS011;65964;43.496;3.710;2024-01-15T09:30:41;10.15;;;3.38;;
71730;SDS011;65964;43.496;3.710;2024-01-15T09:33:07;7.68;;;3.70;;
71730;SDS011;65964;43.496;3.710;2024-01-15T09:35:33;21.30;;;10.98;;
71730;SDS011;65964;43.496;3.710;2024-01-15T09:37:59;18.63;;;5.97;;
71730;SDS011;65964;43.496;3.710;2024-01-15T09:40:25;11.90;;;3.25;;
71730;SDS011;65964;43.496;3.710;2024-01-15T09:42:56;11.57;;;3.75;;
71730;SDS011;65964;43.496;3.710;2024-01-15T09:45:22;11.20;;;3.00;;
71730;SDS011;65964;43.496;3.710;2024-01-15T09:47:48;6.68;;;2.22;;
71730;SDS011;65964;43.496;3.710;2024-01-15T09:50:14;12.88;;;2.70;;
71730;SDS011;65964;43.496;3.710;2024-01-15T09:52:40;6.90;;;2.67;;
71730;SDS011;65964;43.496;3.710;2024-01-15T09:55:06;7.90;;;2.30;;
71730;SDS011;65964;43.496;3.710;2024-01-15T09:57:34;12.38;;;2.97;;
71730;SDS011;65964;43.496;3.710;2024-01-15T10:00:02;4.18;;;1.98;;
71730;SDS011;65964;43.496;3.710;2024-01-15T10:02:29;6.50;;;2.67;;
71730;SDS011;65964;43.496;3.710;2024-01-15T10:04:55;16.02;;;3.13;;
71730;SDS011;65964;43.496;3.710;2024-01-15T10:07:21;19.98;;;3.90;;
71730;SDS011;65964;43.496;3.710;2024-01-15T10:09:47;14.98;;;3.95;;
71730;SDS011;65964;43.496;3.710;2024-01-15T10:12:13;13.63;;;3.55;;
71730;SDS011;65964;43.496;3.710;2024-01-15T10:14:40;7.60;;;2.90;;
71730;SDS011;65964;43.496;3.710;2024-01-15T10:17:13;6.30;;;2.40;;
71730;SDS011;65964;43.496;3.710;2024-01-15T10:19:44;9.32;;;4.03;;
71730;SDS011;65964;43.496;3.710;2024-01-15T10:22:12;11.85;;;5.28;;
71730;SDS011;65964;43.496;3.710;2024-01-15T10:24:39;15.90;;;4.00;;
71730;SDS011;65964;43.496;3.710;2024-01-15T10:27:06;10.40;;;2.70;;
71730;SDS011;65964;43.496;3.710;2024-01-15T10:29:32;10.98;;;3.20;;
71730;SDS011;65964;43.496;3.710;2024-01-15T10:31:58;10.93;;;3.45;;
71730;SDS011;65964;43.496;3.710;2024-01-15T10:34:26;8.98;;;3.05;;
71730;SDS011;65964;43.496;3.710;2024-01-15T10:36:52;8.68;;;3.33;;
71730;SDS011;65964;43.496;3.710;2024-01-15T10:39:23;18.35;;;5.38;;
71730;SDS011;65964;43.496;3.710;2024-01-15T10:41:50;14.18;;;3.63;;
71730;SDS011;65964;43.496;3.710;2024-01-15T10:44:16;7.53;;;2.88;;
71730;SDS011;65964;43.496;3.710;2024-01-15T10:46:43;10.45;;;3.30;;
71730;SDS011;65964;43.496;3.710;2024-01-15T10:49:10;9.50;;;2.75;;
71730;SDS011;65964;43.496;3.710;2024-01-15T10:51:36;9.30;;;2.95;;
71730;SDS011;65964;43.496;3.710;2024-01-15T10:54:03;13.60;;;3.17;;
71730;SDS011;65964;43.496;3.710;2024-01-15T10:56:31;7.38;;;2.30;;
71730;SDS011;65964;43.496;3.710;2024-01-15T10:58:58;6.93;;;2.47;;
71730;SDS011;65964;43.496;3.710;2024-01-15T11:01:25;5.55;;;2.30;;
71730;SDS011;65964;43.496;3.710;2024-01-15T11:03:51;7.78;;;2.38;;
71730;SDS011;65964;43.496;3.710;2024-01-15T11:06:17;9.32;;;2.80;;
71730;SDS011;65964;43.496;3.710;2024-01-15T11:08:50;10.90;;;3.20;;
71730;SDS011;65964;43.496;3.710;2024-01-15T11:11:16;7.97;;;2.80;;
71730;SDS011;65964;43.496;3.710;2024-01-15T11:13:43;10.07;;;3.85;;
71730;SDS011;65964;43.496;3.710;2024-01-15T11:16:10;12.00;;;3.15;;
71730;SDS011;65964;43.496;3.710;2024-01-15T11:18:43;13.82;;;3.65;;
71730;SDS011;65964;43.496;3.710;2024-01-15T11:21:26;5.82;;;2.50;;
71730;SDS011;65964;43.496;3.710;2024-01-15T11:23:58;7.82;;;2.30;;
71730;SDS011;65964;43.496;3.710;2024-01-15T11:26:35;16.50;;;3.20;;
71730;SDS011;65964;43.496;3.710;2024-01-15T11:29:02;27.02;;;3.80;;
71730;SDS011;65964;43.496;3.710;2024-01-15T11:34:07;11.63;;;2.70;;
71730;SDS011;65964;43.496;3.710;2024-01-15T11:41:57;13.20;;;2.97;;
71730;SDS011;65964;43.496;3.710;2024-01-15T11:44:23;7.68;;;2.20;;
71730;SDS011;65964;43.496;3.710;2024-01-15T11:46:59;14.27;;;2.90;;
71730;SDS011;65964;43.496;3.710;2024-01-15T11:49:41;18.25;;;3.88;;
71730;SDS011;65964;43.496;3.710;2024-01-15T11:52:17;23.17;;;9.90;;
71730;SDS011;65964;43.496;3.710;2024-01-15T11:57:21;9.13;;;2.95;;
71730;SDS011;65964;43.496;3.710;2024-01-15T11:59:49;15.23;;;4.40;;
71730;SDS011;65964;43.496;3.710;2024-01-15T12:02:15;8.73;;;3.20;;
71730;SDS011;65964;43.496;3.710;2024-01-15T12:04:41;7.15;;;3.47;;
71730;SDS011;65964;43.496;3.710;2024-01-15T12:07:07;13.50;;;3.67;;
71730;SDS011;65964;43.496;3.710;2024-01-15T12:09:33;6.40;;;2.88;;
71730;SDS011;65964;43.496;3.710;2024-01-15T12:12:03;8.15;;;2.47;;
71730;SDS011;65964;43.496;3.710;2024-01-15T12:14:33;6.03;;;2.55;;
71730;SDS011;65964;43.496;3.710;2024-01-15T12:17:00;5.93;;;2.20;;
71730;SDS011;65964;43.496;3.710;2024-01-15T12:19:26;14.63;;;3.45;;
71730;SDS011;65964;43.496;3.710;2024-01-15T12:21:52;6.97;;;2.28;;
71730;SDS011;65964;43.496;3.710;2024-01-15T12:24:18;7.10;;;2.90;;
71730;SDS011;65964;43.496;3.710;2024-01-15T12:26:44;8.90;;;3.17;;
71730;SDS011;65964;43.496;3.710;2024-01-15T12:29:10;5.07;;;2.58;;
71730;SDS011;65964;43.496;3.710;2024-01-15T12:31:37;9.05;;;2.45;;
71730;SDS011;65964;43.496;3.710;2024-01-15T12:34:03;8.40;;;3.00;;
71730;SDS011;65964;43.496;3.710;2024-01-15T12:36:32;21.85;;;4.15;;
71730;SDS011;65964;43.496;3.710;2024-01-15T12:39:01;17.77;;;6.13;;
71730;SDS011;65964;43.496;3.710;2024-01-15T12:41:27;10.07;;;2.80;;
71730;SDS011;65964;43.496;3.710;2024-01-15T12:43:53;8.80;;;3.50;;
71730;SDS011;65964;43.496;3.710;2024-01-15T12:46:19;15.05;;;3.03;;
71730;SDS011;65964;43.496;3.710;2024-01-15T12:48:45;14.38;;;3.40;;
71730;SDS011;65964;43.496;3.710;2024-01-15T12:51:11;7.93;;;2.47;;
71730;SDS011;65964;43.496;3.710;2024-01-15T12:53:37;11.95;;;3.40;;
71730;SDS011;65964;43.496;3.710;2024-01-15T12:56:03;5.47;;;1.98;;
71730;SDS011;65964;43.496;3.710;2024-01-15T12:58:29;3.83;;;1.50;;
71730;SDS011;65964;43.496;3.710;2024-01-15T13:00:55;7.40;;;1.30;;
71730;SDS011;65964;43.496;3.710;2024-01-15T13:03:22;2.13;;;1.00;;
71730;SDS011;65964;43.496;3.710;2024-01-15T13:05:48;9.05;;;1.58;;
71730;SDS011;65964;43.496;3.710;2024-01-15T13:08:16;2.72;;;1.23;;
71730;SDS011;65964;43.496;3.710;2024-01-15T13:10:42;5.68;;;1.70;;
71730;SDS011;65964;43.496;3.710;2024-01-15T13:13:08;3.47;;;1.08;;
71730;SDS011;65964;43.496;3.710;2024-01-15T13:15:34;13.00;;;2.28;;
71730;SDS011;65964;43.496;3.710;2024-01-15T13:18:00;9.18;;;2.10;;
71730;SDS011;65964;43.496;3.710;2024-01-15T13:20:26;5.28;;;2.13;;
71730;SDS011;65964;43.496;3.710;2024-01-15T13:22:52;1.25;;;0.98;;
71730;SDS011;65964;43.496;3.710;2024-01-15T13:25:18;4.35;;;1.65;;
71730;SDS011;65964;43.496;3.710;2024-01-15T13:27:45;7.35;;;2.13;;
71730;SDS011;65964;43.496;3.710;2024-01-15T13:30:11;7.20;;;1.77;;
71730;SDS011;65964;43.496;3.710;2024-01-15T13:32:38;5.97;;;1.83;;
71730;SDS011;65964;43.496;3.710;2024-01-15T13:35:04;7.05;;;2.30;;
71730;SDS011;65964;43.496;3.710;2024-01-15T13:37:32;10.27;;;4.32;;
71730;SDS011;65964;43.496;3.710;2024-01-15T13:39:58;7.50;;;2.72;;
71730;SDS011;65964;43.496;3.710;2024-01-15T13:42:24;9.73;;;2.70;;
71730;SDS011;65964;43.496;3.710;2024-01-15T13:44:52;7.82;;;2.40;;
71730;SDS011;65964;43.496;3.710;2024-01-15T13:47:18;6.57;;;2.70;;
71730;SDS011;65964;43.496;3.710;2024-01-15T13:49:44;6.00;;;2.10;;
71730;SDS011;65964;43.496;3.710;2024-01-15T13:52:10;5.55;;;2.40;;
71730;SDS011;65964;43.496;3.710;2024-01-15T13:54:37;9.75;;;2.47;;
71730;SDS011;65964;43.496;3.710;2024-01-15T13:57:03;7.97;;;2.42;;
71730;SDS011;65964;43.496;3.710;2024-01-15T13:59:31;2.92;;;1.77;;
71730;SDS011;65964;43.496;3.710;2024-01-15T14:01:57;7.38;;;3.10;;
71730;SDS011;65964;43.496;3.710;2024-01-15T14:04:23;7.15;;;2.40;;
71730;SDS011;65964;43.496;3.710;2024-01-15T14:06:49;10.10;;;2.63;;
71730;SDS011;65964;43.496;3.710;2024-01-15T14:09:15;6.85;;;2.58;;
71730;SDS011;65964;43.496;3.710;2024-01-15T14:11:41;6.32;;;2.28;;
71730;SDS011;65964;43.496;3.710;2024-01-15T14:14:07;8.75;;;4.10;;
71730;SDS011;65964;43.496;3.710;2024-01-15T14:16:34;5.25;;;2.10;;
71730;SDS011;65964;43.496;3.710;2024-01-15T14:19:00;5.43;;;2.45;;
71730;SDS011;65964;43.496;3.710;2024-01-15T14:21:27;19.33;;;4.97;;
71730;SDS011;65964;43.496;3.710;2024-01-15T14:23:53;6.53;;;2.38;;
71730;SDS011;65964;43.496;3.710;2024-01-15T14:26:19;13.40;;;5.50;;
71730;SDS011;65964;43.496;3.710;2024-01-15T14:28:45;17.67;;;6.03;;
71730;SDS011;65964;43.496;3.710;2024-01-15T14:31:12;7.95;;;3.15;;
71730;SDS011;65964;43.496;3.710;2024-01-15T14:33:38;6.43;;;2.58;;
71730;SDS011;65964;43.496;3.710;2024-01-15T14:36:04;12.68;;;5.90;;
71730;SDS011;65964;43.496;3.710;2024-01-15T14:38:30;12.45;;;5.13;;
71730;SDS011;65964;43.496;3.710;2024-01-15T14:40:56;11.20;;;6.03;;
71730;SDS011;65964;43.496;3.710;2024-01-15T14:43:22;12.48;;;5.18;;
71730;SDS011;65964;43.496;3.710;2024-01-15T14:45:48;17.20;;;6.40;;